Time;durP1;ratioP1;P1;durP2;ratioP2;P2;SDS_P1;SDS_P2;PMS_P1;PMS_P2;Temp;Humidity;BMP_temperature;BMP_pressure;BME280_temperature;BME280_humidity;BME280_pressure;Samples;Min_cycle;Max_cycle;Signal;HPM_P1;HPM_P2
2023/10/26 00:00:17;;;;;;;9.30;5.00;;;10.60;99.90;;;;;;5096424;28;20669;-46
2023/10/26 00:02:43;;;;;;;10.67;7.17;;;10.60;99.90;;;;;;5096353;28;20186;-45
2023/10/26 00:05:09;;;;;;;10.57;8.20;;;10.60;99.90;;;;;;5094284;28;20240;-46
2023/10/26 00:07:38;;;;;;;11.47;9.00;;;10.60;99.90;;;;;;5078085;28;20293;-44
2023/10/26 00:10:05;;;;;;;12.20;8.30;;;10.60;99.90;;;;;;5096139;28;20202;-44
2023/10/26 00:12:31;;;;;;;11.13;8.80;;;10.60;99.90;;;;;;5077313;28;20593;-46
2023/10/26 00:14:57;;;;;;;11.23;8.97;;;10.60;99.90;;;;;;5077943;28;20256;-45
2023/10/26 00:17:22;;;;;;;10.13;8.37;;;10.60;99.90;;;;;;5096207;28;20185;-46
2023/10/26 00:19:52;;;;;;;10.93;8.47;;;10.50;99.90;;;;;;5095910;28;20205;-45
2023/10/26 00:22:23;;;;;;;12.17;9.00;;;10.50;99.90;;;;;;5095934;28;20167;-45
2023/10/26 00:24:50;;;;;;;11.43;9.23;;;10.50;99.90;;;;;;5095842;28;20663;-46
2023/10/26 00:27:18;;;;;;;13.37;8.80;;;10.50;99.90;;;;;;5077738;28;20236;-46
2023/10/26 00:29:45;;;;;;;13.87;10.23;;;10.50;99.90;;;;;;5095979;28;20208;-46
2023/10/26 00:32:11;;;;;;;13.37;10.83;;;10.50;99.90;;;;;;5095794;28;20719;-46
2023/10/26 00:34:37;;;;;;;13.77;10.13;;;10.50;99.90;;;;;;5095750;28;20178;-45
2023/10/26 00:37:03;;;;;;;13.70;10.50;;;10.50;99.90;;;;;;5095666;28;20187;-45
2023/10/26 00:39:29;;;;;;;14.00;10.43;;;10.50;99.90;;;;;;5095579;28;20186;-45
2023/10/26 00:41:56;;;;;;;15.33;11.77;;;10.50;99.90;;;;;;5095695;28;20249;-46
2023/10/26 00:44:23;;;;;;;15.33;11.37;;;10.50;99.90;;;;;;5095416;28;20213;-44
2023/10/26 00:46:54;;;;;;;14.53;11.43;;;10.50;99.90;;;;;;5095672;28;20186;-44
2023/10/26 00:49:22;;;;;;;15.03;11.67;;;10.50;99.90;;;;;;5095272;28;20211;-47
2023/10/26 00:52:02;;;;;;;15.40;12.23;;;10.50;99.90;;;;;;5095466;28;20244;-46
2023/10/26 00:54:29;;;;;;;14.50;10.73;;;10.40;99.90;;;;;;5095498;28;20166;-45
2023/10/26 00:56:58;;;;;;;16.23;12.17;;;10.40;99.90;;;;;;5095262;28;20202;-46
2023/10/26 00:59:27;;;;;;;15.20;11.87;;;10.40;99.90;;;;;;5095203;28;20658;-45
2023/10/26 01:01:57;;;;;;;17.07;13.30;;;10.40;99.90;;;;;;5095127;28;20238;-46
2023/10/26 01:04:28;;;;;;;15.57;12.40;;;10.40;99.90;;;;;;5076701;28;20198;-48
2023/10/26 01:06:56;;;;;;;15.97;12.83;;;10.40;99.90;;;;;;5077600;28;20167;-45
2023/10/26 01:09:29;;;;;;;16.67;13.07;;;10.40;99.90;;;;;;5094973;28;20222;-45
2023/10/26 01:11:59;;;;;;;15.97;12.50;;;10.40;99.90;;;;;;5076611;28;20205;-46
2023/10/26 01:14:25;;;;;;;17.33;13.07;;;10.40;99.90;;;;;;5094990;28;20265;-45
2023/10/26 01:16:54;;;;;;;17.40;12.77;;;10.40;99.90;;;;;;5095066;28;20162;-47
2023/10/26 01:19:43;;;;;;;13.77;11.40;;;10.40;99.90;;;;;;5094411;28;20194;-45
2023/10/26 01:22:26;;;;;;;18.40;13.83;;;10.40;99.90;;;;;;5094561;28;20182;-45
2023/10/26 01:25:00;;;;;;;16.90;13.37;;;10.40;99.90;;;;;;5094170;28;20314;-45
2023/10/26 01:27:26;;;;;;;14.07;10.43;;;10.40;99.90;;;;;;5094980;28;20174;-45
2023/10/26 01:29:53;;;;;;;16.00;12.90;;;10.40;99.90;;;;;;5076423;28;20183;-45
2023/10/26 01:32:28;;;;;;;16.27;13.57;;;10.40;99.90;;;;;;5094516;28;20242;-48
2023/10/26 01:35:00;;;;;;;16.10;13.40;;;10.40;99.90;;;;;;5059633;28;20276;-45
2023/10/26 01:37:29;;;;;;;15.83;11.83;;;10.40;99.90;;;;;;5076916;28;20188;-44
2023/10/26 01:39:58;;;;;;;16.70;13.93;;;10.40;99.90;;;;;;5094130;28;20197;-46
2023/10/26 01:42:25;;;;;;;17.00;13.00;;;10.40;99.90;;;;;;5094330;28;20197;-45
2023/10/26 01:44:55;;;;;;;17.03;13.23;;;10.40;99.90;;;;;;5094645;28;20320;-45
2023/10/26 01:47:27;;;;;;;14.37;11.47;;;10.30;99.90;;;;;;5094321;28;20630;-45
2023/10/26 01:49:56;;;;;;;17.23;12.77;;;10.40;99.90;;;;;;5094445;28;20200;-46
2023/10/26 01:52:23;;;;;;;18.50;13.73;;;10.40;99.90;;;;;;5094918;28;20170;-47
2023/10/26 01:54:51;;;;;;;17.23;13.63;;;10.30;99.90;;;;;;5076749;28;20174;-45
2023/10/26 01:57:19;;;;;;;17.90;13.47;;;10.40;99.90;;;;;;5076438;28;20206;-45
2023/10/26 02:00:15;;;;;;;18.53;13.17;;;10.30;99.90;;;;;;5095005;28;20262;-46
2023/10/26 02:02:55;;;;;;;18.70;13.90;;;10.30;99.90;;;;;;5076476;28;20179;-44
2023/10/26 02:05:21;;;;;;;19.17;14.07;;;10.30;99.90;;;;;;5060045;28;20174;-43
2023/10/26 02:08:09;;;;;;;19.40;14.67;;;10.30;99.90;;;;;;5076654;28;20205;-45
2023/10/26 02:10:41;;;;;;;20.33;13.37;;;10.30;99.90;;;;;;5094405;28;20190;-46
2023/10/26 02:13:12;;;;;;;21.37;15.67;;;10.30;99.90;;;;;;5060547;28;20182;-45
2023/10/26 02:15:45;;;;;;;20.30;13.67;;;10.30;99.90;;;;;;5092330;28;20189;-47
2023/10/26 02:18:11;;;;;;;19.03;13.27;;;10.30;99.90;;;;;;5076411;28;20159;-45
2023/10/26 02:21:06;;;;;;;24.20;16.17;;;10.30;99.90;;;;;;5093780;28;20767;-46
2023/10/26 02:23:37;;;;;;;21.73;16.33;;;10.30;99.90;;;;;;5075711;28;20175;-45
2023/10/26 02:26:08;;;;;;;20.67;14.67;;;10.30;99.90;;;;;;5094171;28;20533;-45
2023/10/26 02:28:34;;;;;;;19.17;14.50;;;10.30;99.90;;;;;;5094163;28;20200;-44
2023/10/26 02:31:13;;;;;;;22.37;15.23;;;10.30;99.90;;;;;;5093757;28;20599;-45
2023/10/26 02:33:42;;;;;;;20.00;14.70;;;10.30;99.90;;;;;;5094567;28;20504;-45
2023/10/26 02:36:32;;;;;;;23.33;14.97;;;10.30;99.90;;;;;;5059015;28;20559;-45
2023/10/26 02:38:59;;;;;;;17.47;13.80;;;10.30;99.90;;;;;;5093743;28;20159;-45
2023/10/26 02:42:10;;;;;;;21.20;14.80;;;10.30;99.90;;;;;;5093736;28;20213;-47
2023/10/26 02:44:55;;;;;;;18.17;12.77;;;10.30;99.90;;;;;;5087119;28;20186;-45
2023/10/26 02:47:23;;;;;;;17.00;12.87;;;10.30;99.90;;;;;;5093556;28;20193;-45
2023/10/26 02:49:51;;;;;;;18.70;13.67;;;10.30;99.90;;;;;;5093591;28;20163;-46
2023/10/26 02:55:47;;;;;;;17.07;12.70;;;10.20;99.90;;;;;;5094206;28;20220;-45
